createdAt,value
2022-10-15T00:01:51.144Z,7.83
2022-10-15T00:04:21.332Z,7.83
2022-10-15T00:06:49.999Z,7.81
2022-10-15T00:09:18.846Z,7.77
2022-10-15T00:11:47.871Z,7.83
2022-10-15T00:14:16.586Z,7.82
2022-10-15T00:16:45.329Z,7.81
2022-10-15T00:19:14.447Z,7.78
2022-10-15T00:21:44.710Z,7.78
2022-10-15T00:24:13.837Z,7.78
2022-10-15T00:26:42.696Z,7.73
2022-10-15T00:29:14.795Z,7.80
2022-10-15T00:31:43.383Z,7.79
2022-10-15T00:34:12.268Z,7.80
2022-10-15T00:36:40.945Z,7.82
2022-10-15T00:39:12.261Z,7.79
2022-10-15T00:41:43.903Z,7.84
2022-10-15T00:44:49.243Z,7.79
2022-10-15T00:47:20.465Z,7.77
2022-10-15T00:49:54.503Z,7.73
2022-10-15T00:52:25.857Z,7.72
2022-10-15T00:54:58.836Z,7.68
2022-10-15T00:57:27.737Z,7.63
2022-10-15T00:59:59.902Z,7.62
2022-10-15T01:02:28.833Z,7.57
2022-10-15T01:04:57.686Z,7.58
2022-10-15T01:07:26.209Z,7.58
2022-10-15T01:09:56.790Z,7.58
2022-10-15T01:12:32.728Z,7.55
2022-10-15T01:15:06.329Z,7.59
2022-10-15T01:17:41.842Z,7.57
2022-10-15T01:20:49.339Z,7.46
2022-10-15T01:24:05.997Z,7.40
2022-10-15T01:27:00.269Z,7.37
2022-10-15T01:29:47.164Z,7.40
2022-10-15T01:32:21.469Z,7.37
2022-10-15T01:34:55.113Z,7.36
2022-10-15T01:37:28.678Z,7.40
2022-10-15T01:40:03.452Z,7.34
2022-10-15T01:42:42.525Z,7.38
2022-10-15T01:45:14.443Z,7.30
2022-10-15T01:47:58.297Z,7.38
2022-10-15T01:50:28.893Z,7.38
2022-10-15T01:52:58.022Z,7.37
2022-10-15T01:55:27.697Z,7.37
2022-10-15T01:57:59.573Z,7.34
2022-10-15T02:00:28.455Z,7.28
2022-10-15T02:03:02.656Z,7.34
2022-10-15T02:05:35.998Z,7.30
2022-10-15T02:08:35.272Z,7.34
2022-10-15T02:11:06.750Z,7.40
2022-10-15T02:13:43.706Z,7.44
2022-10-15T02:16:14.320Z,7.41
2022-10-15T02:18:46.284Z,7.50
2022-10-15T02:21:19.064Z,7.44
2022-10-15T02:23:51.932Z,7.44
2022-10-15T02:26:21.702Z,7.45
2022-10-15T02:28:54.114Z,7.41
2022-10-15T02:31:24.807Z,7.45
2022-10-15T02:33:58.943Z,7.47
2022-10-15T02:36:27.887Z,7.49
2022-10-15T02:38:58.343Z,7.44
2022-10-15T02:41:29.220Z,7.43
2022-10-15T02:43:58.335Z,7.38
2022-10-15T02:46:27.019Z,7.43
2022-10-15T02:48:58.521Z,7.42
2022-10-15T02:51:27.238Z,7.44
2022-10-15T02:53:56.900Z,7.45
2022-10-15T02:56:26.540Z,7.47
2022-10-15T02:58:55.574Z,7.45
2022-10-15T03:01:24.709Z,7.36
2022-10-15T03:03:53.599Z,7.34
2022-10-15T03:06:24.034Z,7.35
2022-10-15T03:08:53.314Z,7.30
2022-10-15T03:11:23.841Z,7.36
2022-10-15T03:13:53.529Z,7.33
2022-10-15T03:16:23.131Z,7.32
2022-10-15T03:18:52.125Z,7.34
2022-10-15T03:21:21.396Z,7.26
2022-10-15T03:23:51.491Z,7.29
2022-10-15T03:26:24.525Z,7.22
2022-10-15T03:28:52.994Z,7.17
2022-10-15T03:31:34.564Z,7.20
2022-10-15T03:34:05.227Z,7.20
2022-10-15T03:36:34.214Z,7.10
2022-10-15T03:39:08.473Z,7.14
2022-10-15T03:41:38.126Z,7.19
2022-10-15T03:44:09.152Z,7.23
2022-10-15T03:46:42.241Z,7.18
2022-10-15T03:49:11.273Z,7.21
2022-10-15T03:51:40.180Z,7.18
2022-10-15T03:54:14.647Z,7.29
2022-10-15T03:56:50.012Z,7.34
2022-10-15T03:59:31.053Z,7.37
2022-10-15T04:02:03.101Z,7.42
2022-10-15T04:04:33.313Z,7.37
2022-10-15T04:07:03.566Z,7.33
2022-10-15T04:09:35.657Z,7.40
2022-10-15T04:12:23.543Z,7.53
2022-10-15T04:14:52.989Z,7.51
2022-10-15T04:17:21.871Z,7.42
2022-10-15T04:19:51.474Z,7.48
2022-10-15T04:22:21.825Z,7.36
2022-10-15T04:25:00.288Z,7.53
2022-10-15T04:27:30.398Z,7.54
2022-10-15T04:30:11.439Z,7.53
2022-10-15T04:32:45.221Z,7.44
2022-10-15T04:35:14.957Z,7.45
2022-10-15T04:38:00.208Z,7.46
2022-10-15T04:40:36.150Z,7.48
2022-10-15T04:43:05.252Z,7.54
2022-10-15T04:45:34.542Z,7.57
2022-10-15T04:48:03.568Z,7.60
2022-10-15T04:50:32.640Z,7.68
2022-10-15T04:53:19.750Z,7.63
2022-10-15T04:55:53.869Z,7.73
2022-10-15T04:58:22.811Z,7.64
2022-10-15T05:00:51.689Z,7.71
2022-10-15T05:03:38.500Z,7.70
2022-10-15T05:06:11.819Z,7.81
2022-10-15T05:08:43.570Z,7.90
2022-10-15T05:11:23.849Z,7.80
2022-10-15T05:13:52.914Z,7.72
2022-10-15T05:16:23.281Z,7.87
2022-10-15T05:18:54.252Z,7.85
2022-10-15T05:21:23.795Z,7.75
2022-10-15T05:23:56.564Z,7.84
2022-10-15T05:26:46.739Z,8.00
2022-10-15T05:29:16.894Z,8.18
2022-10-15T05:31:46.119Z,8.08
2022-10-15T05:34:22.247Z,8.09
2022-10-15T05:37:01.913Z,8.14
2022-10-15T05:39:30.761Z,8.11
2022-10-15T05:42:02.487Z,8.14
2022-10-15T05:44:39.315Z,8.11
2022-10-15T05:47:11.989Z,8.36
2022-10-15T05:49:42.305Z,8.52
2022-10-15T05:52:17.063Z,8.82
2022-10-15T05:55:06.782Z,8.85
2022-10-15T05:57:36.942Z,9.01
2022-10-15T06:00:08.376Z,9.05
2022-10-15T06:02:42.726Z,9.10
2022-10-15T06:05:13.291Z,9.38
2022-10-15T06:07:41.704Z,9.47
2022-10-15T06:10:10.921Z,9.76
2022-10-15T06:12:41.097Z,9.57
2022-10-15T06:15:10.828Z,9.77
2022-10-15T06:17:39.621Z,10.02
2022-10-15T06:20:09.001Z,10.05
2022-10-15T06:25:11.403Z,10.80
2022-10-15T06:27:41.796Z,10.98
2022-10-15T06:30:11.403Z,10.74
2022-10-15T06:32:40.069Z,10.45
2022-10-15T06:35:09.394Z,10.16
2022-10-15T06:37:37.795Z,10.56
2022-10-15T06:40:07.513Z,11.09
2022-10-15T06:42:44.177Z,10.87
2022-10-15T06:45:15.749Z,11.32
2022-10-15T06:47:46.975Z,11.35
2022-10-15T06:50:15.722Z,11.62
2022-10-15T06:52:44.629Z,11.60
2022-10-15T06:55:13.352Z,11.94
2022-10-15T06:57:43.662Z,11.74
2022-10-15T07:00:15.943Z,12.53
2022-10-15T07:02:44.670Z,12.40
2022-10-15T07:05:13.291Z,12.11
2022-10-15T07:07:41.897Z,12.31
2022-10-15T07:10:11.260Z,12.26
2022-10-15T07:12:44.406Z,11.98
2022-10-15T07:15:13.357Z,13.08
2022-10-15T07:17:48.314Z,13.58
2022-10-15T07:20:21.706Z,13.55
2022-10-15T07:22:53.541Z,13.97
2022-10-15T07:25:22.272Z,13.18
2022-10-15T07:27:52.548Z,13.89
2022-10-15T07:30:21.317Z,14.01
2022-10-15T07:32:51.406Z,13.11
2022-10-15T07:35:20.297Z,12.90
2022-10-15T07:37:50.565Z,13.65
2022-10-15T07:40:19.762Z,13.04
2022-10-15T07:42:55.755Z,13.16
2022-10-15T07:45:26.750Z,13.03
2022-10-15T07:47:55.709Z,13.44
2022-10-15T07:50:24.839Z,14.02
2022-10-15T07:52:57.709Z,13.34
2022-10-15T07:55:26.562Z,13.49
2022-10-15T07:57:59.414Z,14.16
2022-10-15T08:00:28.296Z,14.64
2022-10-15T08:02:57.353Z,15.48
2022-10-15T08:05:26.182Z,16.32
2022-10-15T08:07:54.633Z,16.38
2022-10-15T08:10:23.555Z,16.60
2022-10-15T08:12:53.025Z,16.27
2022-10-15T08:15:23.145Z,16.07
2022-10-15T08:17:51.942Z,16.49
2022-10-15T08:20:21.848Z,15.76
2022-10-15T08:22:50.333Z,16.06
2022-10-15T08:25:19.121Z,16.45
2022-10-15T08:27:47.895Z,15.85
2022-10-15T08:30:16.658Z,15.63
2022-10-15T08:32:47.165Z,15.80
2022-10-15T08:35:15.614Z,16.62
2022-10-15T08:37:45.203Z,17.36
2022-10-15T08:40:15.186Z,17.20
2022-10-15T08:42:46.635Z,16.39
2022-10-15T08:45:18.981Z,17.10
2022-10-15T08:47:52.883Z,17.64
2022-10-15T08:50:28.544Z,16.93
2022-10-15T08:52:57.774Z,15.78
2022-10-15T08:55:30.304Z,15.48
2022-10-15T08:58:02.321Z,15.47
2022-10-15T09:00:37.319Z,16.29
2022-10-15T09:03:12.915Z,15.22
2022-10-15T09:05:46.814Z,15.71
2022-10-15T09:08:22.941Z,15.52
2022-10-15T09:10:53.807Z,15.52
2022-10-15T09:13:27.502Z,16.08
2022-10-15T09:16:00.386Z,15.93
2022-10-15T09:18:33.828Z,15.83
2022-10-15T09:21:03.746Z,15.51
2022-10-15T09:23:34.320Z,15.02
2022-10-15T09:26:06.741Z,15.44
2022-10-15T09:28:46.421Z,15.66
2022-10-15T09:31:17.058Z,16.22
2022-10-15T09:33:51.943Z,15.79
2022-10-15T09:36:37.841Z,16.03
2022-10-15T09:39:18.545Z,15.41
2022-10-15T09:41:54.818Z,15.32
2022-10-15T09:44:24.723Z,14.97
2022-10-15T09:46:53.193Z,15.06
2022-10-15T09:49:25.816Z,15.17
2022-10-15T09:52:05.969Z,15.09
2022-10-15T09:54:43.183Z,14.86
2022-10-15T09:57:13.675Z,15.05
2022-10-15T09:59:54.729Z,15.16
2022-10-15T10:02:24.709Z,15.28
2022-10-15T10:04:55.519Z,15.46
2022-10-15T10:07:32.468Z,15.69
2022-10-15T10:10:03.880Z,16.11
2022-10-15T10:12:37.644Z,16.37
2022-10-15T10:15:10.006Z,16.04
2022-10-15T10:17:38.988Z,16.40
2022-10-15T10:20:18.678Z,18.64
2022-10-15T10:22:51.197Z,18.57
2022-10-15T10:25:32.274Z,20.02
2022-10-15T10:28:01.162Z,19.76
2022-10-15T10:30:34.955Z,19.64
2022-10-15T10:33:04.041Z,20.35
2022-10-15T10:35:45.411Z,21.37
2022-10-15T10:38:22.160Z,23.53
2022-10-15T10:40:55.446Z,21.78
2022-10-15T10:43:27.791Z,19.62
2022-10-15T10:46:00.333Z,20.02
2022-10-15T10:48:30.703Z,20.72
2022-10-15T10:51:14.122Z,21.03
2022-10-15T10:53:52.044Z,21.79
2022-10-15T10:56:24.508Z,22.27
2022-10-15T10:59:02.107Z,21.74
2022-10-15T11:01:31.291Z,20.72
2022-10-15T11:04:02.589Z,21.27
2022-10-15T11:06:46.767Z,21.61
2022-10-15T11:09:37.776Z,22.93
2022-10-15T11:12:15.982Z,23.73
2022-10-15T11:14:49.559Z,24.93
2022-10-15T11:17:24.552Z,24.11
2022-10-15T11:22:57.571Z,21.75
2022-10-15T11:25:34.343Z,22.04
2022-10-15T11:28:17.681Z,21.71
2022-10-15T11:30:51.795Z,20.60
2022-10-15T11:33:32.921Z,20.08
2022-10-15T11:36:18.458Z,19.33
2022-10-15T11:38:56.303Z,19.53
2022-10-15T11:41:33.731Z,18.58
2022-10-15T11:44:15.558Z,18.53
2022-10-15T11:46:48.866Z,17.83
2022-10-15T11:49:28.193Z,17.82
2022-10-15T11:52:09.480Z,17.47
2022-10-15T11:54:41.004Z,17.29
2022-10-15T11:57:10.542Z,17.34
2022-10-15T11:59:45.168Z,17.38
2022-10-15T12:02:17.048Z,17.36
2022-10-15T12:04:47.959Z,17.19
2022-10-15T12:07:20.373Z,17.19
2022-10-15T12:09:53.223Z,16.95
2022-10-15T12:12:29.970Z,17.34
2022-10-15T12:15:09.571Z,17.35
2022-10-15T12:17:43.829Z,17.32
2022-10-15T12:20:15.951Z,17.31
2022-10-15T12:22:59.186Z,17.24
2022-10-15T12:25:45.080Z,17.16
2022-10-15T12:28:22.060Z,17.22
2022-10-15T12:31:01.674Z,17.13
2022-10-15T12:33:45.636Z,16.97
2022-10-15T12:36:28.124Z,16.99
2022-10-15T12:39:00.818Z,17.20
2022-10-15T12:41:48.798Z,17.23
2022-10-15T12:44:21.940Z,17.15
2022-10-15T12:46:50.982Z,17.76
2022-10-15T12:49:47.360Z,17.52
2022-10-15T12:52:54.207Z,17.60
2022-10-15T12:55:31.846Z,17.55
2022-10-15T12:58:08.134Z,17.56
2022-10-15T13:00:42.710Z,17.19
2022-10-15T13:03:18.408Z,17.13
2022-10-15T13:05:50.220Z,17.21
2022-10-15T13:08:31.622Z,17.18
2022-10-15T13:11:02.075Z,17.36
2022-10-15T13:13:33.982Z,17.38
2022-10-15T13:16:04.419Z,17.57
2022-10-15T13:18:33.450Z,17.88
2022-10-15T13:23:37.161Z,17.74
2022-10-15T13:26:19.433Z,17.68
2022-10-15T13:28:49.671Z,17.34
2022-10-15T13:31:27.383Z,17.18
2022-10-15T13:34:01.412Z,17.22
2022-10-15T13:36:33.576Z,17.05
2022-10-15T13:39:05.660Z,17.07
2022-10-15T13:41:36.480Z,17.00
2022-10-15T13:44:07.156Z,17.06
2022-10-15T13:46:39.754Z,16.96
2022-10-15T13:49:13.749Z,17.11
2022-10-15T13:51:44.047Z,16.87
2022-10-15T13:54:17.071Z,16.85
2022-10-15T13:56:50.546Z,16.80
2022-10-15T13:59:21.782Z,16.87
2022-10-15T14:01:53.147Z,16.78
2022-10-15T14:04:23.804Z,16.76
2022-10-15T14:07:03.255Z,16.89
2022-10-15T14:09:34.738Z,16.85
2022-10-15T14:12:03.823Z,16.81
2022-10-15T14:14:35.638Z,16.89
2022-10-15T14:17:06.302Z,16.89
2022-10-15T14:19:34.730Z,16.75
2022-10-15T14:22:03.987Z,16.76
2022-10-15T14:24:34.972Z,16.63
2022-10-15T14:27:06.087Z,16.61
2022-10-15T14:29:41.587Z,16.56
2022-10-15T14:32:22.499Z,16.69
2022-10-15T14:34:52.109Z,16.70
2022-10-15T14:37:43.884Z,16.55
2022-10-15T14:40:22.142Z,16.66
2022-10-15T14:43:03.745Z,16.51
2022-10-15T14:45:42.922Z,16.51
2022-10-15T14:48:17.181Z,16.46
2022-10-15T14:50:46.285Z,16.42
2022-10-15T14:53:20.534Z,16.41
2022-10-15T14:55:52.468Z,16.41
2022-10-15T14:58:23.196Z,16.34
2022-10-15T15:00:59.204Z,16.38
2022-10-15T15:03:31.561Z,16.24
2022-10-15T15:06:00.408Z,16.33
2022-10-15T15:08:29.300Z,16.24
2022-10-15T15:10:59.417Z,16.26
2022-10-15T15:13:30.047Z,16.18
2022-10-15T15:16:00.202Z,16.05
2022-10-15T15:18:29.164Z,16.00
2022-10-15T15:21:00.984Z,16.01
2022-10-15T15:23:30.307Z,16.00
2022-10-15T15:25:59.113Z,15.99
2022-10-15T15:28:29.636Z,16.04
2022-10-15T15:31:01.574Z,16.03
2022-10-15T15:33:30.758Z,16.02
2022-10-15T15:36:03.169Z,16.04
2022-10-15T15:38:32.176Z,15.96
2022-10-15T15:41:03.543Z,15.86
2022-10-15T15:43:32.232Z,15.89
2022-10-15T15:46:02.481Z,15.80
2022-10-15T15:48:31.153Z,15.78
2022-10-15T15:51:02.673Z,15.69
2022-10-15T15:53:32.048Z,15.66
2022-10-15T15:56:01.317Z,15.59
2022-10-15T15:58:29.808Z,15.57
2022-10-15T16:00:58.537Z,15.57
2022-10-15T16:03:28.827Z,15.54
2022-10-15T16:06:01.153Z,15.46
2022-10-15T16:08:30.211Z,15.45
2022-10-15T16:11:02.450Z,15.42
2022-10-15T16:13:30.864Z,15.36
2022-10-15T16:15:59.706Z,15.43
2022-10-15T16:18:30.137Z,15.36
2022-10-15T16:20:59.177Z,15.35
2022-10-15T16:23:27.878Z,15.27
2022-10-15T16:25:57.594Z,15.29
2022-10-15T16:28:26.322Z,15.32
2022-10-15T16:30:55.078Z,15.29
2022-10-15T16:33:23.890Z,15.38
2022-10-15T16:35:54.612Z,15.40
2022-10-15T16:38:23.386Z,15.43
2022-10-15T16:40:51.730Z,15.40
2022-10-15T16:43:20.459Z,15.35
2022-10-15T16:45:56.391Z,15.31
2022-10-15T16:48:26.223Z,15.23
2022-10-15T16:51:02.957Z,15.12
2022-10-15T16:53:32.109Z,15.09
2022-10-15T16:56:02.390Z,15.10
2022-10-15T16:58:31.587Z,14.86
2022-10-15T17:01:01.392Z,14.82
2022-10-15T17:03:30.521Z,14.70
2022-10-15T17:05:59.880Z,14.73
2022-10-15T17:08:35.849Z,14.61
2022-10-15T17:11:10.808Z,14.36
2022-10-15T17:13:39.303Z,14.22
2022-10-15T17:16:12.801Z,14.23
2022-10-15T17:18:42.540Z,14.22
2022-10-15T17:21:12.575Z,14.28
2022-10-15T17:23:44.155Z,14.22
2022-10-15T17:26:15.218Z,14.31
2022-10-15T17:28:45.555Z,14.28
2022-10-15T17:31:16.049Z,14.22
2022-10-15T17:33:45.834Z,14.08
2022-10-15T17:36:16.385Z,14.19
2022-10-15T17:38:47.132Z,14.04
2022-10-15T17:41:18.000Z,14.14
2022-10-15T17:43:46.652Z,14.08
2022-10-15T17:46:17.167Z,14.14
2022-10-15T17:48:47.275Z,14.06
2022-10-15T17:51:18.052Z,14.01
2022-10-15T17:53:50.778Z,14.00
2022-10-15T17:56:21.526Z,13.98
2022-10-15T17:58:51.074Z,14.00
2022-10-15T18:01:28.142Z,13.96
2022-10-15T18:04:02.338Z,13.90
2022-10-15T18:06:31.071Z,13.87
2022-10-15T18:09:03.680Z,13.88
2022-10-15T18:11:34.271Z,13.83
2022-10-15T18:14:03.550Z,13.87
2022-10-15T18:16:32.350Z,13.94
2022-10-15T18:19:01.121Z,14.02
2022-10-15T18:21:29.938Z,14.08
2022-10-15T18:24:01.091Z,13.99
2022-10-15T18:26:32.379Z,13.99
2022-10-15T18:29:02.538Z,14.03
2022-10-15T18:31:31.492Z,14.06
2022-10-15T18:34:02.641Z,14.10
2022-10-15T18:36:33.013Z,14.07
2022-10-15T18:39:02.891Z,14.10
2022-10-15T18:41:33.908Z,14.03
2022-10-15T18:44:04.700Z,13.99
2022-10-15T18:46:34.835Z,14.00
2022-10-15T18:49:03.811Z,13.94
2022-10-15T18:51:32.911Z,13.93
2022-10-15T18:54:03.552Z,13.88
2022-10-15T18:56:32.271Z,13.82
2022-10-15T18:59:01.308Z,13.86
2022-10-15T19:01:32.801Z,13.82
2022-10-15T19:04:03.207Z,13.79
2022-10-15T19:06:35.281Z,13.67
2022-10-15T19:09:07.392Z,13.65
2022-10-15T19:11:36.637Z,13.51
2022-10-15T19:14:05.953Z,13.54
2022-10-15T19:16:36.637Z,13.64
2022-10-15T19:19:12.650Z,13.59
2022-10-15T19:21:41.352Z,13.59
2022-10-15T19:24:11.549Z,13.56
2022-10-15T19:26:41.837Z,13.59
2022-10-15T19:29:10.577Z,13.51
2022-10-15T19:31:42.090Z,13.54
2022-10-15T19:34:11.233Z,13.58
2022-10-15T19:36:41.727Z,13.61
2022-10-15T19:39:13.794Z,13.58
2022-10-15T19:41:46.893Z,13.54
2022-10-15T19:44:18.129Z,13.58
2022-10-15T19:46:47.537Z,13.49
2022-10-15T19:49:16.804Z,13.56
2022-10-15T19:51:48.038Z,13.53
2022-10-15T19:54:18.642Z,13.49
2022-10-15T19:56:47.504Z,13.46
2022-10-15T19:59:17.032Z,13.42
2022-10-15T20:01:45.541Z,13.37
2022-10-15T20:04:14.277Z,13.37
2022-10-15T20:06:43.754Z,13.23
2022-10-15T20:09:13.203Z,13.26
2022-10-15T20:11:45.058Z,13.15
2022-10-15T20:14:13.724Z,13.10
2022-10-15T20:16:43.913Z,13.10
2022-10-15T20:19:13.149Z,13.09
2022-10-15T20:21:41.998Z,13.05
2022-10-15T20:24:10.644Z,12.96
2022-10-15T20:26:39.333Z,13.02
2022-10-15T20:29:09.946Z,12.98
2022-10-15T20:31:38.341Z,12.93
2022-10-15T20:34:07.096Z,12.90
2022-10-15T20:36:35.975Z,12.94
2022-10-15T20:39:04.898Z,13.00
2022-10-15T20:41:33.567Z,12.95
2022-10-15T20:44:02.434Z,13.02
2022-10-15T20:46:34.966Z,13.06
2022-10-15T20:49:08.694Z,13.05
2022-10-15T20:51:38.676Z,13.14
2022-10-15T20:54:07.812Z,13.12
2022-10-15T20:56:36.776Z,13.22
2022-10-15T20:59:06.016Z,13.19
2022-10-15T21:01:36.251Z,13.27
2022-10-15T21:04:06.018Z,13.35
2022-10-15T21:06:35.185Z,13.31
2022-10-15T21:09:04.112Z,13.33
2022-10-15T21:11:32.869Z,13.34
2022-10-15T21:14:01.711Z,13.42
2022-10-15T21:19:00.266Z,13.44
2022-10-15T21:21:29.355Z,13.44
2022-10-15T21:23:59.333Z,13.51
2022-10-15T21:26:28.241Z,13.48
2022-10-15T21:28:56.824Z,13.33
2022-10-15T21:31:28.818Z,13.29
2022-10-15T21:33:57.799Z,13.33
2022-10-15T21:36:28.885Z,13.27
2022-10-15T21:39:00.607Z,13.19
2022-10-15T21:41:30.798Z,13.28
2022-10-15T21:43:59.865Z,13.18
2022-10-15T21:46:30.589Z,13.15
2022-10-15T21:48:59.772Z,13.22
2022-10-15T21:51:31.330Z,13.25
2022-10-15T21:54:02.560Z,13.20
2022-10-15T21:56:31.720Z,13.27
2022-10-15T21:59:01.012Z,13.20
2022-10-15T22:01:31.722Z,13.07
2022-10-15T22:04:02.642Z,13.09
2022-10-15T22:06:36.309Z,13.14
2022-10-15T22:09:08.001Z,13.07
2022-10-15T22:11:38.179Z,13.15
2022-10-15T22:14:09.376Z,13.20
2022-10-15T22:16:39.892Z,13.12
2022-10-15T22:19:09.856Z,13.12
2022-10-15T22:21:40.136Z,13.09
2022-10-15T22:24:12.355Z,13.13
2022-10-15T22:26:42.721Z,13.10
2022-10-15T22:29:18.540Z,13.13
2022-10-15T22:31:46.919Z,13.12
2022-10-15T22:34:16.463Z,13.21
2022-10-15T22:36:46.762Z,13.20
2022-10-15T22:39:17.233Z,13.18
2022-10-15T22:41:46.173Z,13.24
2022-10-15T22:44:16.738Z,13.19
2022-10-15T22:46:49.245Z,13.19
2022-10-15T22:49:19.746Z,13.19
2022-10-15T22:51:50.768Z,13.20
2022-10-15T22:54:20.944Z,13.16
2022-10-15T22:56:50.273Z,13.08
2022-10-15T22:59:19.527Z,13.14
2022-10-15T23:01:48.093Z,13.13
2022-10-15T23:04:17.257Z,13.14
2022-10-15T23:06:46.995Z,13.12
2022-10-15T23:09:19.978Z,13.15
2022-10-15T23:11:48.826Z,13.21
2022-10-15T23:14:18.615Z,13.15
2022-10-15T23:16:48.352Z,13.25
2022-10-15T23:19:19.231Z,13.21
2022-10-15T23:21:49.867Z,13.28
2022-10-15T23:24:21.241Z,13.40
2022-10-15T23:26:50.293Z,13.39
2022-10-15T23:29:20.833Z,13.42
2022-10-15T23:31:51.782Z,13.44
2022-10-15T23:34:22.553Z,13.51
2022-10-15T23:36:51.660Z,13.55
2022-10-15T23:39:23.570Z,13.51
2022-10-15T23:41:52.501Z,13.57
2022-10-15T23:44:21.617Z,13.61
2022-10-15T23:46:50.077Z,13.64
2022-10-15T23:49:18.993Z,13.68
2022-10-15T23:51:47.717Z,13.65
2022-10-15T23:54:18.812Z,13.81
2022-10-15T23:56:48.987Z,13.80
2022-10-15T23:59:18.448Z,13.86
